createdAt,value
2023-05-22T00:00:35.672Z,99871.78
2023-05-22T00:03:37.635Z,99869.94
2023-05-22T00:06:42.686Z,99871.91
2023-05-22T00:09:46.523Z,99871.91
2023-05-22T00:12:48.621Z,99870.94
2023-05-22T00:15:50.634Z,99874.63
2023-05-22T00:18:52.555Z,99869.41
2023-05-22T00:21:54.497Z,99864.63
2023-05-22T00:24:58.451Z,99865.72
2023-05-22T00:28:00.229Z,99866.25
2023-05-22T00:31:01.997Z,99867.66
2023-05-22T00:34:04.526Z,99862.09
2023-05-22T00:37:06.354Z,99867.69
2023-05-22T00:40:12.041Z,99864.59
2023-05-22T00:43:17.229Z,99862.06
2023-05-22T00:46:21.774Z,99860.44
2023-05-22T00:49:23.585Z,99853.41
2023-05-22T00:52:25.704Z,99853.59
2023-05-22T00:55:29.182Z,99861.44
2023-05-22T00:58:31.484Z,99863.50
2023-05-22T01:01:36.940Z,99856.84
2023-05-22T01:04:38.940Z,99857.91
2023-05-22T01:07:41.226Z,99861.38
2023-05-22T01:10:45.118Z,99856.34
2023-05-22T01:13:57.380Z,99853.78
2023-05-22T01:17:09.361Z,99864.72
2023-05-22T01:20:19.084Z,99856.28
2023-05-22T01:23:57.536Z,99860.16
2023-05-22T01:27:26.027Z,99851.06
2023-05-22T01:30:45.549Z,99856.75
2023-05-22T01:33:51.591Z,99854.81
2023-05-22T01:36:54.664Z,99870.50
2023-05-22T01:39:58.434Z,99861.94
2023-05-22T01:43:01.192Z,99872.72
2023-05-22T01:46:05.800Z,99882.38
2023-05-22T01:49:09.062Z,99875.88
2023-05-22T01:52:15.560Z,99875.25
2023-05-22T01:55:27.429Z,99881.13
2023-05-22T01:58:34.822Z,99877.75
2023-05-22T02:01:39.259Z,99878.72
2023-05-22T02:04:45.238Z,99881.03
2023-05-22T02:07:53.185Z,99881.03
2023-05-22T02:10:56.160Z,99887.69
2023-05-22T02:13:58.328Z,99881.84
2023-05-22T02:17:03.444Z,99872.66
2023-05-22T02:20:07.532Z,99866.47
2023-05-22T02:23:14.426Z,99879.69
2023-05-22T02:26:16.123Z,99876.94
2023-05-22T02:29:18.626Z,99873.06
2023-05-22T02:32:22.052Z,99874.41
2023-05-22T02:35:25.145Z,99877.75
2023-05-22T02:38:28.101Z,99868.59
2023-05-22T02:41:30.321Z,99875.88
2023-05-22T02:44:32.780Z,99884.84
2023-05-22T02:47:35.988Z,99882.88
2023-05-22T02:50:37.954Z,99886.22
2023-05-22T02:53:41.184Z,99883.13
2023-05-22T02:56:43.402Z,99888.00
2023-05-22T02:59:45.916Z,99889.66
2023-05-22T03:02:49.996Z,99890.56
2023-05-22T03:05:54.391Z,99893.09
2023-05-22T03:08:56.364Z,99889.69
2023-05-22T03:11:58.759Z,99893.63
2023-05-22T03:15:01.094Z,99890.50
2023-05-22T03:18:08.937Z,99892.25
2023-05-22T03:21:11.006Z,99901.75
2023-05-22T03:24:13.113Z,99889.28
2023-05-22T03:27:17.003Z,99887.91
2023-05-22T03:30:18.853Z,99891.78
2023-05-22T03:33:32.560Z,99894.41
2023-05-22T03:36:34.865Z,99899.31
2023-05-22T03:39:36.885Z,99904.78
2023-05-22T03:42:49.488Z,99904.50
2023-05-22T03:45:52.867Z,99907.25
2023-05-22T03:48:56.244Z,99899.50
2023-05-22T03:51:59.626Z,99904.34
2023-05-22T03:55:01.837Z,99902.41
2023-05-22T03:58:03.673Z,99913.78
2023-05-22T04:01:05.761Z,99913.34
2023-05-22T04:04:09.571Z,99909.94
2023-05-22T04:07:13.441Z,99916.13
2023-05-22T04:10:15.692Z,99923.16
2023-05-22T04:13:18.960Z,99920.94
2023-05-22T04:16:21.728Z,99920.03
2023-05-22T04:19:24.973Z,99929.69
2023-05-22T04:22:27.497Z,99931.41
2023-05-22T04:25:30.096Z,99932.34
2023-05-22T04:28:32.625Z,99936.69
2023-05-22T04:31:34.806Z,99944.25
2023-05-22T04:34:42.200Z,99932.56
2023-05-22T04:37:45.572Z,99943.44
2023-05-22T04:40:47.820Z,99944.50
2023-05-22T04:43:49.773Z,99951.13
2023-05-22T04:46:53.588Z,99946.88
2023-05-22T04:49:57.181Z,99944.13
2023-05-22T04:53:04.472Z,99936.66
2023-05-22T04:56:07.269Z,99939.84
2023-05-22T04:59:10.274Z,99938.16
2023-05-22T05:02:13.834Z,99948.41
2023-05-22T05:05:16.960Z,99941.31
2023-05-22T05:08:18.909Z,99936.75
2023-05-22T05:11:21.675Z,99945.47
2023-05-22T05:14:23.723Z,99940.06
2023-05-22T05:17:25.456Z,99938.31
2023-05-22T05:20:30.498Z,99942.63
2023-05-22T05:23:32.296Z,99946.16
2023-05-22T05:26:34.285Z,99945.72
2023-05-22T05:29:36.962Z,99937.97
2023-05-22T05:32:45.788Z,99940.03
2023-05-22T05:36:00.856Z,99935.94
2023-05-22T05:39:03.718Z,99944.94
2023-05-22T05:42:08.890Z,99941.66
2023-05-22T05:45:11.858Z,99946.63
2023-05-22T05:48:13.862Z,99948.94
2023-05-22T05:51:21.525Z,99953.31
2023-05-22T05:54:25.481Z,99951.72
2023-05-22T05:57:30.267Z,99949.91
2023-05-22T06:00:32.619Z,99948.13
2023-05-22T06:03:35.382Z,99957.59
2023-05-22T06:06:51.927Z,99962.56
2023-05-22T06:09:53.750Z,99957.53
2023-05-22T06:13:02.706Z,99958.97
2023-05-22T06:16:06.764Z,99957.91
2023-05-22T06:19:09.638Z,99962.97
2023-05-22T06:22:13.120Z,99959.53
2023-05-22T06:25:17.756Z,99959.63
2023-05-22T06:28:19.842Z,99958.78
2023-05-22T06:31:22.764Z,99960.84
2023-05-22T06:34:25.904Z,99961.78
2023-05-22T06:37:35.807Z,99957.31
2023-05-22T06:40:38.201Z,99955.94
2023-05-22T06:43:55.936Z,99953.72
2023-05-22T06:47:03.584Z,99958.59
2023-05-22T06:50:07.292Z,99960.16
2023-05-22T06:53:11.389Z,99957.38
2023-05-22T06:56:13.148Z,99955.38
2023-05-22T06:59:26.313Z,99963.75
2023-05-22T07:02:57.442Z,99961.81
2023-05-22T07:06:06.084Z,99970.13
2023-05-22T07:09:11.316Z,99972.41
2023-05-22T07:12:13.637Z,99972.81
2023-05-22T07:15:15.632Z,99969.94
2023-05-22T07:18:23.695Z,99974.28
2023-05-22T07:21:25.694Z,99986.06
2023-05-22T07:24:30.157Z,99982.72
2023-05-22T07:27:32.163Z,99981.34
2023-05-22T07:30:36.922Z,99983.09
2023-05-22T07:33:40.577Z,99986.25
2023-05-22T07:36:42.930Z,99983.56
2023-05-22T07:39:46.873Z,99994.31
2023-05-22T07:42:49.597Z,99995.16
2023-05-22T07:45:51.525Z,99993.31
2023-05-22T07:48:57.923Z,99993.94
2023-05-22T07:51:59.903Z,99992.78
2023-05-22T07:55:03.615Z,100000.47
2023-05-22T07:58:11.075Z,99995.91
2023-05-22T08:01:17.329Z,99998.75
2023-05-22T08:04:19.242Z,99999.81
2023-05-22T08:07:21.189Z,99999.03
2023-05-22T08:10:29.924Z,99993.63
2023-05-22T08:13:38.807Z,100001.00
2023-05-22T08:16:41.260Z,100001.38
2023-05-22T08:19:43.232Z,100001.78
2023-05-22T08:22:45.006Z,99998.53
2023-05-22T08:25:48.439Z,99996.03
2023-05-22T08:28:50.968Z,99999.75
2023-05-22T08:31:53.918Z,100003.38
2023-05-22T08:34:55.803Z,100006.53
2023-05-22T08:37:57.626Z,99999.50
2023-05-22T08:41:01.268Z,100000.88
2023-05-22T08:44:03.957Z,100002.09
2023-05-22T08:47:11.154Z,99998.53
2023-05-22T08:50:13.527Z,99997.75
2023-05-22T08:53:17.960Z,99995.41
2023-05-22T08:56:22.232Z,99984.91
2023-05-22T08:59:24.340Z,99984.94
2023-05-22T09:02:28.567Z,99988.09
2023-05-22T09:05:31.385Z,99987.41
2023-05-22T09:08:33.214Z,99986.22
2023-05-22T09:11:36.710Z,99982.59
2023-05-22T09:14:39.403Z,99978.84
2023-05-22T09:17:41.444Z,99979.50
2023-05-22T09:20:43.600Z,99973.25
2023-05-22T09:23:49.469Z,99976.38
2023-05-22T09:26:53.053Z,99981.03
2023-05-22T09:29:56.782Z,99980.41
2023-05-22T09:32:58.732Z,99977.53
2023-05-22T09:36:01.559Z,99975.53
2023-05-22T09:39:04.617Z,99971.50
2023-05-22T09:42:09.293Z,99980.25
2023-05-22T09:45:12.429Z,99987.78
2023-05-22T09:48:18.479Z,99981.13
2023-05-22T09:51:26.809Z,99980.00
2023-05-22T09:54:30.794Z,99978.50
2023-05-22T09:57:41.652Z,99986.44
2023-05-22T10:00:45.108Z,99983.00
2023-05-22T10:03:49.310Z,99982.28
2023-05-22T10:06:53.626Z,99980.53
2023-05-22T10:09:59.702Z,99980.78
2023-05-22T10:13:05.088Z,99978.56
2023-05-22T10:16:07.810Z,99979.53
2023-05-22T10:19:11.154Z,99979.91
2023-05-22T10:22:20.806Z,99983.13
2023-05-22T10:25:23.437Z,99979.97
2023-05-22T10:28:32.967Z,99974.91
2023-05-22T10:31:42.320Z,99968.06
2023-05-22T10:34:59.405Z,99965.56
2023-05-22T10:38:23.013Z,99958.81
2023-05-22T10:41:26.477Z,99964.06
2023-05-22T10:44:29.688Z,99964.16
2023-05-22T10:47:33.424Z,99966.66
2023-05-22T10:50:36.130Z,99951.91
2023-05-22T10:53:41.025Z,99959.53
2023-05-22T10:56:43.055Z,99951.09
2023-05-22T10:59:47.821Z,99949.00
2023-05-22T11:02:51.127Z,99950.97
2023-05-22T11:05:57.839Z,99948.03
2023-05-22T11:09:00.038Z,99939.28
2023-05-22T11:12:20.520Z,99936.66
2023-05-22T11:15:31.464Z,99937.19
2023-05-22T11:18:33.469Z,99934.22
2023-05-22T11:21:36.757Z,99930.91
2023-05-22T11:24:40.461Z,99931.69
2023-05-22T11:27:42.610Z,99930.50
2023-05-22T11:30:45.969Z,99929.34
2023-05-22T11:33:48.387Z,99929.81
2023-05-22T11:36:52.225Z,99917.13
2023-05-22T11:39:57.069Z,99921.75
2023-05-22T11:42:58.886Z,99922.75
2023-05-22T11:46:07.309Z,99914.56
2023-05-22T11:49:13.470Z,99918.59
2023-05-22T11:52:17.416Z,99911.88
2023-05-22T11:55:19.167Z,99906.16
2023-05-22T11:58:22.781Z,99918.97
2023-05-22T12:01:26.595Z,99905.78
2023-05-22T12:04:28.491Z,99898.25
2023-05-22T12:07:31.033Z,99896.00
2023-05-22T12:10:32.888Z,99902.22
2023-05-22T12:13:35.196Z,99903.09
2023-05-22T12:16:38.559Z,99887.91
2023-05-22T12:19:41.662Z,99884.19
2023-05-22T12:22:44.080Z,99884.69
2023-05-22T12:25:46.190Z,99888.34
2023-05-22T12:28:47.901Z,99886.91
2023-05-22T12:31:51.592Z,99883.13
2023-05-22T12:34:58.238Z,99873.38
2023-05-22T12:38:00.584Z,99875.47
2023-05-22T12:41:05.881Z,99885.34
2023-05-22T12:44:07.726Z,99879.53
2023-05-22T12:47:11.103Z,99886.72
2023-05-22T12:50:13.017Z,99882.28
2023-05-22T12:53:15.145Z,99883.06
2023-05-22T12:56:17.091Z,99870.13
2023-05-22T12:59:20.757Z,99877.81
2023-05-22T13:02:24.068Z,99882.88
2023-05-22T13:05:26.044Z,99869.75
2023-05-22T13:08:28.646Z,99865.38
2023-05-22T13:11:31.540Z,99872.59
2023-05-22T13:14:33.576Z,99877.31
2023-05-22T13:17:36.845Z,99875.38
2023-05-22T13:20:39.148Z,99864.97
2023-05-22T13:23:40.994Z,99865.38
2023-05-22T13:26:42.709Z,99857.78
2023-05-22T13:29:44.568Z,99854.53
2023-05-22T13:32:50.856Z,99853.03
2023-05-22T13:35:53.187Z,99848.44
2023-05-22T13:38:55.074Z,99851.06
2023-05-22T13:41:57.576Z,99850.34
2023-05-22T13:44:59.641Z,99847.56
2023-05-22T13:48:04.242Z,99840.13
2023-05-22T13:51:06.387Z,99853.22
2023-05-22T13:54:08.224Z,99851.50
2023-05-22T13:57:10.992Z,99849.81
2023-05-22T14:00:14.080Z,99849.13
2023-05-22T14:03:18.238Z,99846.25
2023-05-22T14:06:23.401Z,99839.91
2023-05-22T14:09:27.050Z,99842.13
2023-05-22T14:12:29.134Z,99829.56
2023-05-22T14:15:31.169Z,99817.34
2023-05-22T14:18:34.436Z,99815.16
2023-05-22T14:21:36.296Z,99813.41
2023-05-22T14:24:39.442Z,99822.81
2023-05-22T14:27:41.663Z,99828.06
2023-05-22T14:30:44.071Z,99835.06
2023-05-22T14:33:47.250Z,99831.44
2023-05-22T14:36:49.042Z,99838.22
2023-05-22T14:39:51.074Z,99836.00
2023-05-22T14:42:54.378Z,99836.28
2023-05-22T14:45:58.014Z,99828.91
2023-05-22T14:49:01.472Z,99831.31
2023-05-22T14:52:08.556Z,99820.81
2023-05-22T14:55:10.336Z,99811.22
2023-05-22T14:58:12.944Z,99822.50
2023-05-22T15:01:15.082Z,99807.97
2023-05-22T15:04:18.661Z,99814.50
2023-05-22T15:07:24.363Z,99805.34
2023-05-22T15:10:28.783Z,99809.28
2023-05-22T15:13:31.006Z,99814.25
2023-05-22T15:16:32.933Z,99827.41
2023-05-22T15:19:36.712Z,99825.56
2023-05-22T15:22:39.291Z,99838.59
2023-05-22T15:25:42.886Z,99834.22
2023-05-22T15:28:44.708Z,99839.19
2023-05-22T15:31:48.694Z,99841.31
2023-05-22T15:34:52.462Z,99856.22
2023-05-22T15:37:54.242Z,99871.13
2023-05-22T15:40:55.988Z,99875.66
2023-05-22T15:43:58.018Z,99864.63
2023-05-22T15:46:59.903Z,99869.06
2023-05-22T15:50:06.924Z,99861.16
2023-05-22T15:53:08.894Z,99856.72
2023-05-22T15:56:10.868Z,99856.66
2023-05-22T15:59:12.949Z,99837.16
2023-05-22T16:02:14.970Z,99838.44
2023-05-22T16:05:18.351Z,99834.09
2023-05-22T16:08:23.783Z,99815.16
2023-05-22T16:11:25.987Z,99831.59
2023-05-22T16:14:27.924Z,99830.16
2023-05-22T16:17:29.780Z,99823.41
2023-05-22T16:20:33.359Z,99836.44
2023-05-22T16:23:35.108Z,99838.47
2023-05-22T16:26:39.779Z,99849.81
2023-05-22T16:29:41.871Z,99862.06
2023-05-22T16:32:45.432Z,99867.66
2023-05-22T16:35:48.812Z,99869.16
2023-05-22T16:38:50.772Z,99873.16
2023-05-22T16:41:53.978Z,99886.97
2023-05-22T16:44:56.460Z,99890.38
2023-05-22T16:47:58.707Z,99896.91
2023-05-22T16:51:02.045Z,99917.19
2023-05-22T16:54:04.651Z,99918.19
2023-05-22T16:57:07.630Z,99926.63
2023-05-22T17:00:10.974Z,99934.88
2023-05-22T17:03:14.194Z,99935.22
2023-05-22T17:06:20.869Z,99940.50
2023-05-22T17:09:24.499Z,99938.06
2023-05-22T17:12:26.391Z,99945.19
2023-05-22T17:15:29.550Z,99955.66
2023-05-22T17:18:31.663Z,99951.28
2023-05-22T17:21:35.047Z,99956.97
2023-05-22T17:24:36.799Z,99952.28
2023-05-22T17:27:38.645Z,99937.97
2023-05-22T17:30:43.306Z,99942.59
2023-05-22T17:33:45.901Z,99948.78
2023-05-22T17:36:51.170Z,99950.78
2023-05-22T17:39:52.994Z,99961.44
2023-05-22T17:42:58.338Z,99964.50
2023-05-22T17:46:00.710Z,99969.63
2023-05-22T17:49:02.815Z,99976.81
2023-05-22T17:52:08.481Z,99968.84
2023-05-22T17:55:10.610Z,99960.59
2023-05-22T17:58:14.799Z,99961.59
2023-05-22T18:01:18.649Z,99964.13
2023-05-22T18:04:20.968Z,99955.91
2023-05-22T18:07:24.183Z,99962.06
2023-05-22T18:10:27.432Z,99955.47
2023-05-22T18:13:30.355Z,99945.66
2023-05-22T18:16:33.080Z,99951.16
2023-05-22T18:19:34.994Z,99948.91
2023-05-22T18:22:39.819Z,99952.72
2023-05-22T18:25:44.037Z,99958.66
2023-05-22T18:28:48.462Z,99955.59
2023-05-22T18:31:51.650Z,99950.97
2023-05-22T18:34:54.154Z,99950.97
2023-05-22T18:37:59.670Z,99943.31
2023-05-22T18:41:01.631Z,99939.03
2023-05-22T18:44:04.106Z,99933.28
2023-05-22T18:47:06.287Z,99936.06
2023-05-22T18:50:08.634Z,99932.09
2023-05-22T18:53:12.083Z,99928.03
2023-05-22T18:56:13.930Z,99931.47
2023-05-22T18:59:15.981Z,99935.50
2023-05-22T19:02:23.660Z,99936.00
2023-05-22T19:05:26.195Z,99941.06
2023-05-22T19:08:31.218Z,99934.94
2023-05-22T19:11:34.573Z,99942.16
2023-05-22T19:14:36.397Z,99937.38
2023-05-22T19:17:38.370Z,99938.28
2023-05-22T19:20:40.699Z,99939.19
2023-05-22T19:23:44.810Z,99944.16
2023-05-22T19:26:46.727Z,99942.09
2023-05-22T19:29:48.581Z,99949.34
2023-05-22T19:32:51.151Z,99937.78
2023-05-22T19:35:53.414Z,99950.09
2023-05-22T19:38:56.639Z,99949.59
2023-05-22T19:41:59.098Z,99955.19
2023-05-22T19:45:02.552Z,99966.25
2023-05-22T19:48:04.382Z,99963.38
2023-05-22T19:51:08.882Z,99965.97
2023-05-22T19:54:12.401Z,99961.97
2023-05-22T19:57:14.554Z,99958.38
2023-05-22T20:00:17.017Z,99958.50
2023-05-22T20:03:20.333Z,99974.72
2023-05-22T20:06:22.792Z,99981.28
2023-05-22T20:09:26.969Z,99980.94
2023-05-22T20:12:30.114Z,99988.94
2023-05-22T20:15:33.015Z,100002.84
2023-05-22T20:18:34.900Z,100017.28
2023-05-22T20:21:36.928Z,100014.53
2023-05-22T20:24:40.155Z,100017.28
2023-05-22T20:27:41.998Z,100025.84
2023-05-22T20:30:44.241Z,100023.19
2023-05-22T20:33:46.044Z,100033.44
2023-05-22T20:36:48.376Z,100030.97
2023-05-22T20:39:52.546Z,100037.88
2023-05-22T20:42:54.397Z,100038.63
2023-05-22T20:45:56.543Z,100045.31
2023-05-22T20:48:59.982Z,100040.19
2023-05-22T20:52:02.789Z,100039.47
2023-05-22T20:55:07.312Z,100038.81
2023-05-22T20:58:09.378Z,100048.06
2023-05-22T21:01:11.556Z,100051.84
2023-05-22T21:04:13.742Z,100056.03
2023-05-22T21:07:15.831Z,100059.53
2023-05-22T21:10:19.109Z,100071.41
2023-05-22T21:13:21.370Z,100079.34
2023-05-22T21:16:24.253Z,100076.97
2023-05-22T21:19:26.080Z,100076.69
2023-05-22T21:22:27.839Z,100083.25
2023-05-22T21:25:30.987Z,100084.47
2023-05-22T21:28:32.986Z,100087.78
2023-05-22T21:31:35.752Z,100090.13
2023-05-22T21:34:37.746Z,100087.16
2023-05-22T21:37:41.246Z,100091.72
2023-05-22T21:40:45.855Z,100089.22
2023-05-22T21:43:47.837Z,100100.06
2023-05-22T21:46:50.081Z,100102.38
2023-05-22T21:49:52.576Z,100098.47
2023-05-22T21:52:55.474Z,100100.31
2023-05-22T21:55:58.618Z,100106.38
2023-05-22T21:59:00.598Z,100109.47
2023-05-22T22:02:02.788Z,100110.19
2023-05-22T22:05:05.852Z,100117.47
2023-05-22T22:08:07.751Z,100114.09
2023-05-22T22:11:10.925Z,100117.56
2023-05-22T22:14:13.814Z,100114.00
2023-05-22T22:17:16.876Z,100121.31
2023-05-22T22:20:24.782Z,100120.19
2023-05-22T22:23:32.720Z,100119.81
2023-05-22T22:26:38.662Z,100115.72
2023-05-22T22:29:42.918Z,100111.75
2023-05-22T22:32:45.818Z,100127.34
2023-05-22T22:35:49.479Z,100121.03
2023-05-22T22:38:51.413Z,100125.28
2023-05-22T22:41:54.899Z,100126.50
2023-05-22T22:44:56.902Z,100123.06
2023-05-22T22:48:01.150Z,100118.66
2023-05-22T22:51:04.918Z,100123.16
2023-05-22T22:54:06.858Z,100124.09
2023-05-22T22:57:10.628Z,100133.06
2023-05-22T23:00:13.966Z,100138.28
2023-05-22T23:03:15.719Z,100137.66
2023-05-22T23:06:18.322Z,100136.84
2023-05-22T23:09:20.377Z,100130.84
2023-05-22T23:12:23.640Z,100132.34
2023-05-22T23:15:25.879Z,100131.13
2023-05-22T23:18:27.917Z,100129.59
2023-05-22T23:21:29.718Z,100131.94
2023-05-22T23:24:32.097Z,100130.78
2023-05-22T23:27:36.453Z,100136.91
2023-05-22T23:30:38.321Z,100131.66
2023-05-22T23:33:40.356Z,100137.47
2023-05-22T23:36:43.182Z,100134.03
2023-05-22T23:39:45.002Z,100143.00
2023-05-22T23:42:48.361Z,100143.00
2023-05-22T23:45:50.628Z,100148.00
2023-05-22T23:48:52.488Z,100146.28
2023-05-22T23:55:17.910Z,100152.88
2023-05-22T23:58:22.729Z,100157.06
